createdAt,value
2023-02-16T00:02:01.028Z,11.40
2023-02-16T00:04:31.084Z,11.30
2023-02-16T00:07:00.726Z,11.40
2023-02-16T00:09:28.836Z,11.40
2023-02-16T00:12:15.645Z,11.40
2023-02-16T00:14:45.013Z,11.20
2023-02-16T00:17:13.304Z,11.20
2023-02-16T00:19:44.283Z,11.40
2023-02-16T00:22:12.343Z,11.20
2023-02-16T00:24:40.370Z,11.30
2023-02-16T00:27:16.754Z,11.20
2023-02-16T00:29:46.231Z,11.40
2023-02-16T00:32:15.538Z,11.50
2023-02-16T00:34:46.050Z,11.60
2023-02-16T00:37:15.409Z,11.50
2023-02-16T00:39:44.608Z,11.70
2023-02-16T00:42:21.289Z,11.50
2023-02-16T00:44:53.025Z,11.40
2023-02-16T00:47:24.868Z,11.60
2023-02-16T00:49:55.205Z,11.70
2023-02-16T00:52:34.309Z,11.90
2023-02-16T00:55:03.901Z,11.70
2023-02-16T00:57:35.685Z,11.50
2023-02-16T01:00:08.688Z,11.40
2023-02-16T01:02:37.064Z,11.50
2023-02-16T01:05:07.729Z,11.60
2023-02-16T01:07:53.573Z,11.40
2023-02-16T01:10:43.304Z,11.50
2023-02-16T01:13:12.539Z,11.70
2023-02-16T01:15:44.342Z,11.40
2023-02-16T01:18:14.601Z,11.70
2023-02-16T01:20:46.337Z,11.40
2023-02-16T01:23:15.374Z,11.40
2023-02-16T01:25:43.913Z,11.10
2023-02-16T01:28:20.668Z,11.10
2023-02-16T01:30:50.916Z,11.20
2023-02-16T01:33:20.581Z,11.20
2023-02-16T01:35:49.846Z,11.40
2023-02-16T01:38:21.356Z,11.50
2023-02-16T01:40:58.770Z,11.50
2023-02-16T01:43:30.301Z,11.50
2023-02-16T01:46:08.141Z,11.30
2023-02-16T01:48:36.357Z,11.20
2023-02-16T01:51:12.047Z,11.30
2023-02-16T01:53:45.095Z,11.40
2023-02-16T01:56:22.567Z,11.50
2023-02-16T01:58:55.973Z,11.80
2023-02-16T02:01:45.727Z,11.70
2023-02-16T02:04:39.601Z,11.70
2023-02-16T02:07:14.360Z,11.70
2023-02-16T02:09:47.018Z,11.70
2023-02-16T02:12:22.397Z,11.70
2023-02-16T02:14:51.552Z,11.70
2023-02-16T02:17:22.945Z,11.70
2023-02-16T02:19:59.425Z,11.70
2023-02-16T02:23:19.983Z,11.80
2023-02-16T02:26:34.115Z,11.60
2023-02-16T02:29:13.837Z,11.50
2023-02-16T02:31:54.353Z,11.30
2023-02-16T02:34:32.954Z,11.20
2023-02-16T02:37:12.410Z,11.20
2023-02-16T02:39:51.327Z,11.40
2023-02-16T02:42:31.932Z,11.00
2023-02-16T02:45:08.268Z,11.30
2023-02-16T02:47:42.599Z,11.10
2023-02-16T02:50:35.318Z,10.90
2023-02-16T02:53:08.104Z,10.80
2023-02-16T02:55:58.482Z,10.70
2023-02-16T02:58:49.362Z,10.70
2023-02-16T03:01:19.876Z,10.90
2023-02-16T03:03:51.396Z,10.90
2023-02-16T03:06:25.048Z,11.00
2023-02-16T03:09:03.858Z,10.90
2023-02-16T03:11:49.777Z,10.90
2023-02-16T03:14:23.435Z,11.10
2023-02-16T03:17:13.403Z,11.00
2023-02-16T03:20:03.503Z,10.90
2023-02-16T03:22:51.614Z,11.20
2023-02-16T03:25:38.543Z,11.20
2023-02-16T03:28:26.579Z,11.20
2023-02-16T03:30:59.560Z,11.10
2023-02-16T03:33:29.410Z,11.10
2023-02-16T03:35:59.277Z,11.20
2023-02-16T03:38:28.367Z,11.00
2023-02-16T03:40:57.163Z,11.00
2023-02-16T03:43:27.586Z,10.90
2023-02-16T03:45:57.363Z,10.50
2023-02-16T03:48:25.412Z,10.50
2023-02-16T03:50:53.395Z,10.50
2023-02-16T03:53:21.474Z,10.50
2023-02-16T03:55:50.013Z,10.60
2023-02-16T03:58:21.274Z,10.70
2023-02-16T04:00:50.648Z,10.40
2023-02-16T04:03:20.650Z,10.50
2023-02-16T04:05:49.061Z,10.50
2023-02-16T04:08:17.096Z,10.50
2023-02-16T04:10:45.463Z,10.40
2023-02-16T04:13:17.643Z,10.30
2023-02-16T04:15:45.681Z,10.00
2023-02-16T04:18:13.683Z,10.00
2023-02-16T04:20:44.428Z,10.20
2023-02-16T04:23:12.917Z,10.40
2023-02-16T04:25:41.841Z,10.20
2023-02-16T04:28:10.237Z,9.80
2023-02-16T04:30:38.771Z,10.00
2023-02-16T04:33:08.449Z,10.20
2023-02-16T04:35:36.871Z,10.30
2023-02-16T04:38:06.721Z,10.40
2023-02-16T04:40:34.751Z,10.40
2023-02-16T04:43:03.249Z,10.50
2023-02-16T04:45:31.632Z,10.50
2023-02-16T04:47:59.692Z,10.10
2023-02-16T04:50:27.667Z,10.10
2023-02-16T04:52:56.596Z,10.30
2023-02-16T04:55:26.512Z,10.20
2023-02-16T04:57:55.343Z,10.10
2023-02-16T05:00:26.662Z,10.00
2023-02-16T05:02:55.345Z,10.20
2023-02-16T05:05:23.822Z,10.10
2023-02-16T05:07:52.517Z,10.00
2023-02-16T05:10:20.652Z,10.20
2023-02-16T05:13:08.541Z,10.20
2023-02-16T05:15:37.463Z,10.30
2023-02-16T05:18:05.684Z,10.10
2023-02-16T05:20:52.433Z,10.20
2023-02-16T05:23:21.174Z,10.20
2023-02-16T05:25:52.716Z,10.20
2023-02-16T05:28:22.312Z,10.00
2023-02-16T05:30:51.343Z,9.50
2023-02-16T05:33:19.460Z,9.50
2023-02-16T05:35:48.405Z,9.30
2023-02-16T05:38:16.489Z,9.70
2023-02-16T05:40:44.941Z,9.70
2023-02-16T05:43:12.944Z,9.70
2023-02-16T05:45:42.767Z,9.80
2023-02-16T05:48:10.769Z,10.10
2023-02-16T05:50:38.982Z,10.10
2023-02-16T05:53:06.960Z,10.10
2023-02-16T05:55:35.934Z,9.80
2023-02-16T05:58:03.922Z,9.80
2023-02-16T06:00:33.596Z,9.70
2023-02-16T06:03:04.664Z,9.80
2023-02-16T06:05:33.476Z,9.60
2023-02-16T06:08:03.237Z,9.90
2023-02-16T06:10:31.216Z,10.00
2023-02-16T06:13:00.779Z,10.10
2023-02-16T06:15:29.451Z,10.20
2023-02-16T06:17:57.419Z,10.10
2023-02-16T06:20:27.366Z,10.10
2023-02-16T06:22:55.391Z,10.00
2023-02-16T06:25:24.042Z,10.10
2023-02-16T06:27:53.164Z,10.10
2023-02-16T06:30:21.700Z,9.90
2023-02-16T06:32:49.847Z,9.80
2023-02-16T06:35:18.013Z,9.80
2023-02-16T06:37:50.476Z,9.80
2023-02-16T06:40:19.133Z,10.20
2023-02-16T06:42:47.186Z,10.40
2023-02-16T06:45:16.362Z,10.40
2023-02-16T06:47:44.403Z,10.20
2023-02-16T06:50:14.654Z,10.40
2023-02-16T06:52:43.493Z,10.30
2023-02-16T06:55:12.853Z,10.00
2023-02-16T06:57:43.036Z,10.20
2023-02-16T07:00:14.626Z,10.20
2023-02-16T07:02:47.334Z,10.10
2023-02-16T07:05:15.457Z,10.40
2023-02-16T07:07:43.954Z,10.50
2023-02-16T07:10:49.082Z,10.50
2023-02-16T07:13:18.547Z,10.20
2023-02-16T07:15:47.593Z,10.20
2023-02-16T07:18:16.256Z,10.30
2023-02-16T07:20:45.450Z,10.40
2023-02-16T07:23:13.502Z,10.30
2023-02-16T07:25:43.258Z,10.40
2023-02-16T07:28:11.689Z,10.30
2023-02-16T07:30:40.198Z,10.40
2023-02-16T07:33:09.987Z,10.70
2023-02-16T07:35:39.420Z,11.00
2023-02-16T07:38:08.806Z,11.10
2023-02-16T07:40:37.887Z,11.10
2023-02-16T07:43:08.016Z,11.20
2023-02-16T07:45:37.482Z,11.20
2023-02-16T07:48:07.013Z,10.90
2023-02-16T07:50:35.501Z,10.90
2023-02-16T07:53:04.136Z,10.60
2023-02-16T07:55:32.161Z,10.70
2023-02-16T07:58:00.216Z,10.50
2023-02-16T08:00:29.898Z,10.60
2023-02-16T08:02:58.034Z,10.60
2023-02-16T08:05:26.613Z,10.80
2023-02-16T08:07:55.044Z,11.00
2023-02-16T08:10:23.070Z,10.70
2023-02-16T08:12:52.515Z,10.60
2023-02-16T08:15:20.514Z,10.80
2023-02-16T08:17:53.793Z,10.80
2023-02-16T08:20:23.782Z,10.80
2023-02-16T08:22:58.018Z,10.90
2023-02-16T08:25:26.060Z,10.70
2023-02-16T08:27:54.124Z,10.80
2023-02-16T08:30:25.260Z,10.80
2023-02-16T08:32:56.706Z,10.70
2023-02-16T08:35:25.727Z,10.80
2023-02-16T08:37:53.726Z,10.80
2023-02-16T08:40:26.579Z,10.70
2023-02-16T08:42:55.143Z,10.70
2023-02-16T08:45:23.377Z,11.00
2023-02-16T08:47:53.153Z,10.90
2023-02-16T08:50:23.796Z,11.00
2023-02-16T08:52:51.821Z,11.20
2023-02-16T08:55:20.270Z,11.20
2023-02-16T08:57:48.639Z,11.00
2023-02-16T09:00:37.547Z,10.90
2023-02-16T09:03:07.133Z,11.00
2023-02-16T09:05:37.869Z,10.90
2023-02-16T09:08:06.448Z,10.90
2023-02-16T09:10:34.504Z,10.80
2023-02-16T09:13:03.375Z,11.00
2023-02-16T09:15:32.698Z,11.00
2023-02-16T09:18:01.303Z,11.10
2023-02-16T09:20:29.859Z,11.00
2023-02-16T09:22:59.267Z,11.10
2023-02-16T09:25:27.722Z,11.00
2023-02-16T09:28:00.554Z,11.30
2023-02-16T09:30:30.886Z,11.40
2023-02-16T09:33:01.447Z,11.40
2023-02-16T09:35:29.508Z,11.60
2023-02-16T09:37:59.485Z,11.50
2023-02-16T09:40:30.442Z,11.60
2023-02-16T09:43:08.750Z,11.20
2023-02-16T09:45:43.396Z,11.50
2023-02-16T09:48:22.577Z,11.80
2023-02-16T09:50:54.896Z,12.00
2023-02-16T09:53:37.062Z,12.10
2023-02-16T09:56:16.834Z,12.10
2023-02-16T09:58:50.642Z,12.10
2023-02-16T10:01:29.230Z,12.00
2023-02-16T10:04:08.491Z,12.00
2023-02-16T10:06:49.786Z,11.60
2023-02-16T10:09:22.078Z,11.60
2023-02-16T10:11:54.404Z,11.50
2023-02-16T10:14:41.208Z,11.70
2023-02-16T10:17:25.581Z,11.60
2023-02-16T10:19:57.116Z,11.60
2023-02-16T10:22:36.425Z,11.50
2023-02-16T10:25:11.961Z,11.50
2023-02-16T10:27:44.697Z,11.50
2023-02-16T10:30:17.465Z,11.30
2023-02-16T10:32:56.707Z,11.40
2023-02-16T10:35:38.004Z,11.40
2023-02-16T10:38:14.028Z,11.30
2023-02-16T10:40:54.052Z,11.20
2023-02-16T10:43:40.631Z,11.10
2023-02-16T10:46:12.497Z,11.20
2023-02-16T10:48:41.149Z,11.30
2023-02-16T10:51:12.776Z,11.50
2023-02-16T10:53:44.747Z,11.70
2023-02-16T10:56:31.829Z,11.80
2023-02-16T10:59:02.253Z,11.60
2023-02-16T11:01:38.714Z,11.60
2023-02-16T11:04:07.845Z,11.70
2023-02-16T11:06:36.712Z,11.40
2023-02-16T11:09:06.994Z,11.50
2023-02-16T11:11:39.510Z,11.80
2023-02-16T11:14:21.585Z,11.90
2023-02-16T11:17:04.848Z,12.00
2023-02-16T11:19:36.661Z,11.90
2023-02-16T11:22:06.356Z,12.00
2023-02-16T11:24:36.814Z,12.10
2023-02-16T11:27:15.982Z,12.30
2023-02-16T11:29:45.028Z,12.10
2023-02-16T11:32:16.000Z,12.30
2023-02-16T11:34:47.992Z,12.30
2023-02-16T11:37:21.862Z,12.20
2023-02-16T11:39:54.104Z,12.30
2023-02-16T11:42:30.886Z,12.30
2023-02-16T11:45:01.181Z,12.30
2023-02-16T11:47:33.215Z,12.30
2023-02-16T11:50:28.364Z,12.90
2023-02-16T11:53:13.830Z,13.00
2023-02-16T11:55:44.353Z,13.20
2023-02-16T11:58:20.550Z,12.90
2023-02-16T12:01:01.525Z,12.60
2023-02-16T12:03:51.188Z,12.70
2023-02-16T12:06:33.554Z,12.40
2023-02-16T12:09:14.248Z,12.40
2023-02-16T12:11:52.170Z,12.60
2023-02-16T12:14:41.698Z,12.40
2023-02-16T12:17:22.829Z,12.60
2023-02-16T12:20:01.881Z,12.60
2023-02-16T12:22:36.151Z,12.60
2023-02-16T12:25:20.236Z,12.60
2023-02-16T12:27:53.844Z,12.50
2023-02-16T12:30:37.720Z,12.50
2023-02-16T12:33:22.684Z,12.70
2023-02-16T12:36:17.810Z,12.50
2023-02-16T12:38:56.892Z,12.40
2023-02-16T12:41:35.955Z,12.20
2023-02-16T12:44:10.675Z,12.10
2023-02-16T12:46:44.636Z,12.00
2023-02-16T12:49:17.758Z,12.30
2023-02-16T12:51:50.630Z,12.60
2023-02-16T12:54:24.679Z,12.50
2023-02-16T12:57:00.843Z,12.80
2023-02-16T12:59:37.934Z,12.60
2023-02-16T13:02:16.159Z,12.70
2023-02-16T13:04:50.684Z,12.30
2023-02-16T13:07:27.077Z,12.30
2023-02-16T13:10:03.327Z,12.20
2023-02-16T13:12:36.811Z,12.10
2023-02-16T13:18:06.397Z,12.20
2023-02-16T13:20:36.159Z,12.20
2023-02-16T13:23:52.614Z,12.40
2023-02-16T13:26:39.810Z,12.40
2023-02-16T13:29:29.394Z,12.40
2023-02-16T13:32:17.447Z,12.40
2023-02-16T13:35:04.045Z,12.20
2023-02-16T13:38:00.686Z,12.30
2023-02-16T13:40:49.605Z,12.40
2023-02-16T13:43:31.626Z,12.30
2023-02-16T13:46:01.454Z,12.50
2023-02-16T13:48:33.714Z,12.40
2023-02-16T13:51:07.060Z,12.40
2023-02-16T13:53:39.607Z,12.50
2023-02-16T13:56:17.579Z,12.60
2023-02-16T13:58:46.061Z,12.80
2023-02-16T14:01:43.314Z,12.80
2023-02-16T14:04:34.930Z,12.70
2023-02-16T14:07:37.748Z,13.00
2023-02-16T14:10:07.875Z,13.00
2023-02-16T14:12:41.057Z,12.90
2023-02-16T14:15:21.867Z,13.00
2023-02-16T14:17:50.551Z,12.90
2023-02-16T14:20:30.347Z,13.10
2023-02-16T14:23:01.131Z,13.10
2023-02-16T14:25:49.094Z,13.00
2023-02-16T14:28:54.940Z,13.00
2023-02-16T14:31:25.278Z,13.00
2023-02-16T14:34:03.223Z,12.70
2023-02-16T14:36:32.999Z,12.50
2023-02-16T14:39:03.421Z,12.50
2023-02-16T14:41:34.108Z,12.60
2023-02-16T14:44:35.445Z,12.80
2023-02-16T14:47:19.060Z,13.00
2023-02-16T14:50:09.207Z,13.00
2023-02-16T14:53:10.938Z,13.00
2023-02-16T14:56:21.685Z,12.80
2023-02-16T14:58:57.321Z,12.90
2023-02-16T15:01:27.170Z,12.80
2023-02-16T15:03:58.726Z,12.70
2023-02-16T15:06:35.369Z,12.70
2023-02-16T15:09:06.728Z,12.80
2023-02-16T15:11:58.191Z,13.00
2023-02-16T15:14:29.273Z,13.10
2023-02-16T15:17:00.179Z,13.00
2023-02-16T15:19:31.528Z,13.20
2023-02-16T15:22:12.782Z,13.40
2023-02-16T15:24:44.780Z,13.60
2023-02-16T15:27:23.337Z,13.60
2023-02-16T15:30:12.231Z,13.60
2023-02-16T15:32:41.081Z,13.80
2023-02-16T15:35:14.183Z,13.50
2023-02-16T15:37:42.669Z,13.40
2023-02-16T15:40:25.625Z,13.40
2023-02-16T15:42:56.012Z,13.60
2023-02-16T15:45:32.859Z,13.70
2023-02-16T15:48:22.300Z,13.80
2023-02-16T15:50:53.860Z,13.60
2023-02-16T15:53:34.979Z,13.50
2023-02-16T15:56:16.784Z,13.30
2023-02-16T15:58:44.952Z,13.50
2023-02-16T16:01:34.071Z,13.50
2023-02-16T16:04:07.791Z,13.40
2023-02-16T16:06:40.207Z,13.50
2023-02-16T16:09:20.677Z,13.60
2023-02-16T16:11:50.382Z,13.80
2023-02-16T16:14:24.979Z,14.00
2023-02-16T16:16:55.806Z,14.10
2023-02-16T16:19:32.784Z,13.90
2023-02-16T16:22:02.486Z,13.80
2023-02-16T16:24:39.246Z,13.60
2023-02-16T16:27:09.315Z,13.60
2023-02-16T16:29:42.733Z,13.30
2023-02-16T16:32:21.378Z,13.20
2023-02-16T16:34:53.948Z,13.10
2023-02-16T16:37:31.622Z,13.40
2023-02-16T16:40:07.013Z,13.30
2023-02-16T16:42:39.770Z,13.40
2023-02-16T16:45:35.106Z,13.40
2023-02-16T16:48:10.720Z,13.50
2023-02-16T16:50:42.424Z,13.00
2023-02-16T16:53:43.238Z,13.20
2023-02-16T16:56:13.949Z,13.20
2023-02-16T16:58:42.628Z,13.10
2023-02-16T17:01:14.123Z,12.90
2023-02-16T17:03:43.908Z,13.20
2023-02-16T17:06:14.589Z,13.30
2023-02-16T17:08:42.875Z,13.30
2023-02-16T17:11:16.931Z,13.40
2023-02-16T17:13:45.236Z,13.50
2023-02-16T17:16:18.944Z,13.40
2023-02-16T17:18:48.458Z,13.30
2023-02-16T17:21:17.724Z,13.30
2023-02-16T17:23:52.896Z,13.10
2023-02-16T17:26:22.101Z,13.10
2023-02-16T17:28:51.434Z,13.30
2023-02-16T17:31:19.532Z,13.00
2023-02-16T17:33:48.997Z,13.10
2023-02-16T17:36:19.053Z,12.80
2023-02-16T17:38:47.169Z,12.90
2023-02-16T17:41:22.246Z,13.10
2023-02-16T17:43:50.887Z,12.90
2023-02-16T17:46:20.663Z,12.90
2023-02-16T17:48:53.245Z,12.80
2023-02-16T17:51:24.846Z,12.70
2023-02-16T17:53:54.034Z,12.70
2023-02-16T17:56:24.386Z,12.70
2023-02-16T17:58:53.168Z,12.80
2023-02-16T18:01:22.012Z,13.20
2023-02-16T18:03:53.099Z,13.40
2023-02-16T18:06:26.356Z,13.20
2023-02-16T18:08:57.156Z,13.30
2023-02-16T18:11:25.320Z,13.30
2023-02-16T18:13:53.599Z,12.90
2023-02-16T18:16:27.948Z,12.80
2023-02-16T18:18:58.128Z,12.90
2023-02-16T18:21:28.880Z,12.70
2023-02-16T18:23:56.900Z,12.80
2023-02-16T18:26:32.071Z,12.80
2023-02-16T18:29:00.284Z,12.40
2023-02-16T18:31:28.449Z,12.40
2023-02-16T18:33:58.872Z,12.40
2023-02-16T18:36:26.906Z,12.30
2023-02-16T18:38:56.807Z,12.40
2023-02-16T18:41:25.141Z,12.40
2023-02-16T18:43:54.912Z,12.50
2023-02-16T18:46:23.042Z,12.50
2023-02-16T18:48:51.529Z,12.40
2023-02-16T18:51:23.948Z,12.40
2023-02-16T18:53:52.109Z,12.20
2023-02-16T18:56:20.183Z,11.80
2023-02-16T18:58:49.907Z,11.90
2023-02-16T19:01:26.796Z,12.00
2023-02-16T19:03:59.245Z,12.00
2023-02-16T19:06:29.056Z,12.00
2023-02-16T19:08:58.899Z,11.80
2023-02-16T19:11:31.180Z,11.80
2023-02-16T19:13:59.657Z,11.80
2023-02-16T19:16:28.175Z,11.60
2023-02-16T19:18:56.417Z,11.20
2023-02-16T19:21:25.531Z,11.30
2023-02-16T19:23:55.284Z,11.30
2023-02-16T19:26:23.676Z,11.50
2023-02-16T19:28:54.500Z,11.40
2023-02-16T19:31:25.610Z,11.20
2023-02-16T19:33:54.654Z,11.20
2023-02-16T19:36:23.654Z,11.20
2023-02-16T19:38:55.323Z,11.20
2023-02-16T19:41:28.802Z,11.40
2023-02-16T19:43:59.453Z,11.30
2023-02-16T19:46:28.926Z,11.20
2023-02-16T19:48:58.094Z,11.10
2023-02-16T19:51:28.565Z,11.40
2023-02-16T19:53:57.564Z,11.40
2023-02-16T19:56:28.831Z,11.30
2023-02-16T19:58:58.113Z,11.40
2023-02-16T20:01:28.872Z,11.40
2023-02-16T20:03:59.000Z,11.50
2023-02-16T20:06:29.234Z,11.70
2023-02-16T20:08:58.910Z,11.80
2023-02-16T20:11:30.730Z,11.80
2023-02-16T20:14:00.176Z,11.50
2023-02-16T20:16:29.020Z,11.50
2023-02-16T20:18:59.110Z,11.40
2023-02-16T20:21:31.140Z,11.60
2023-02-16T20:24:01.384Z,11.30
2023-02-16T20:26:34.493Z,11.40
2023-02-16T20:29:03.045Z,11.30
2023-02-16T20:31:33.917Z,11.30
2023-02-16T20:34:02.131Z,11.20
2023-02-16T20:36:30.929Z,11.20
2023-02-16T20:38:59.920Z,11.30
2023-02-16T20:41:27.970Z,11.20
2023-02-16T20:43:59.246Z,11.30
2023-02-16T20:46:27.467Z,11.30
2023-02-16T20:48:55.898Z,11.30
2023-02-16T20:51:24.296Z,11.50
2023-02-16T20:53:52.344Z,11.50
2023-02-16T20:56:24.414Z,11.30
2023-02-16T20:58:54.523Z,11.40
2023-02-16T21:01:26.043Z,11.50
2023-02-16T21:03:55.500Z,11.50
2023-02-16T21:06:24.068Z,11.30
2023-02-16T21:08:52.693Z,11.20
2023-02-16T21:11:21.210Z,10.90
2023-02-16T21:13:49.846Z,11.20
2023-02-16T21:16:18.767Z,11.40
2023-02-16T21:18:51.421Z,11.10
2023-02-16T21:21:19.983Z,10.80
2023-02-16T21:23:51.530Z,11.00
2023-02-16T21:26:21.692Z,11.20
2023-02-16T21:28:50.377Z,10.60
2023-02-16T21:31:22.079Z,10.90
2023-02-16T21:33:52.833Z,10.90
2023-02-16T21:36:24.237Z,10.90
2023-02-16T21:38:52.877Z,11.00
2023-02-16T21:41:25.829Z,11.00
2023-02-16T21:43:56.940Z,11.00
2023-02-16T21:46:26.609Z,10.90
2023-02-16T21:48:55.185Z,10.90
2023-02-16T21:51:25.798Z,11.00
2023-02-16T21:53:54.777Z,11.00
2023-02-16T21:56:30.495Z,10.90
2023-02-16T21:58:59.764Z,10.90
2023-02-16T22:01:30.001Z,11.00
2023-02-16T22:04:02.721Z,11.00
2023-02-16T22:06:35.247Z,11.10
2023-02-16T22:09:08.559Z,11.00
2023-02-16T22:11:36.926Z,11.10
2023-02-16T22:14:05.267Z,10.80
2023-02-16T22:16:35.968Z,11.10
2023-02-16T22:19:08.106Z,11.20
2023-02-16T22:21:36.518Z,11.20
2023-02-16T22:24:06.638Z,11.30
2023-02-16T22:26:37.231Z,11.10
2023-02-16T22:29:07.392Z,10.80
2023-02-16T22:31:37.109Z,10.80
2023-02-16T22:34:08.909Z,10.70
2023-02-16T22:36:37.990Z,10.80
2023-02-16T22:39:06.281Z,10.90
2023-02-16T22:41:34.591Z,10.80
2023-02-16T22:44:03.382Z,10.80
2023-02-16T22:46:34.315Z,11.00
2023-02-16T22:49:03.114Z,11.20
2023-02-16T22:51:34.938Z,11.30
2023-02-16T22:54:04.743Z,11.10
2023-02-16T22:56:33.926Z,11.20
2023-02-16T22:59:02.501Z,11.10
2023-02-16T23:01:32.072Z,10.90
2023-02-16T23:04:04.683Z,11.20
2023-02-16T23:06:38.341Z,11.20
2023-02-16T23:09:13.071Z,11.00
2023-02-16T23:11:42.988Z,10.90
2023-02-16T23:14:16.292Z,10.90
2023-02-16T23:16:45.757Z,10.90
2023-02-16T23:19:15.665Z,10.80
2023-02-16T23:21:45.717Z,10.80
2023-02-16T23:24:18.137Z,11.00
2023-02-16T23:26:47.165Z,10.90
2023-02-16T23:29:16.202Z,10.80
2023-02-16T23:31:49.293Z,10.70
2023-02-16T23:34:18.859Z,10.70
2023-02-16T23:36:48.345Z,10.80
2023-02-16T23:39:19.139Z,10.50
2023-02-16T23:41:47.275Z,10.80
2023-02-16T23:44:15.600Z,10.90
2023-02-16T23:46:50.592Z,10.90
2023-02-16T23:49:21.574Z,10.80
2023-02-16T23:51:53.972Z,10.70
2023-02-16T23:54:22.569Z,10.90
2023-02-16T23:56:52.755Z,11.10
2023-02-16T23:59:22.373Z,11.00
